| time (UTC) | temp F | wind direction | speed knots | gust knots | rain 1hr in | rain 24hr in | rain mn in | humidity % | barometer mb |
| 20260508230047 | 63 | 224 | 0.0 | 1.7 | 0.00 | 0.00 | 0.00 | 58 | 1007.5 |
| 20260508224546 | 63 | 255 | 0.0 | 2.6 | 0.00 | 0.00 | 0.00 | 56 | 1007.5 |
| 20260508223050 | 64 | 226 | 0.0 | 4.3 | 0.00 | 0.00 | 0.00 | 48 | 1007.5 |
| 20260508221544 | 63 | 216 | 0.0 | 2.6 | 0.00 | 0.00 | 0.00 | 44 | 1007.6 |
| 20260508220043 | 64 | 240 | 0.0 | 0.9 | 0.00 | 0.00 | 0.00 | 41 | 1007.6 |
| 20260508214551 | 64 | 305 | 0.0 | 2.6 | 0.00 | 0.00 | 0.00 | 40 | 1007.7 |
| 20260508213041 | 65 | 285 | 0.0 | 5.2 | 0.00 | 0.00 | 0.00 | 42 | 1007.8 |
| 20260508211542 | 64 | 212 | 0.0 | 0.9 | 0.00 | 0.00 | 0.00 | 40 | 1007.9 |
| 20260508210038 | 65 | 276 | 0.0 | 2.6 | 0.00 | 0.00 | 0.00 | 37 | 1008.0 |
| 20260508204542 | 64 | 79 | 0.0 | 3.5 | 0.00 | 0.00 | 0.00 | 42 | 1008.1 |
| 20260508203035 | 64 | 283 | 0.0 | 3.5 | 0.00 | 0.00 | 0.00 | 39 | 1008.3 |
| 20260508201532 | 64 | 245 | 0.0 | 1.7 | 0.00 | 0.00 | 0.00 | 41 | 1008.7 |
| 20260508200031 | 65 | 227 | 0.0 | 1.7 | 0.00 | 0.00 | 0.00 | 41 | 1009.0 |
| 20260508194527 | 63 | 149 | 0.0 | 3.5 | 0.00 | 0.00 | 0.00 | 42 | 1009.2 |
| 20260508193025 | 63 | 275 | 0.0 | 3.5 | 0.00 | 0.00 | 0.00 | 42 | 1009.5 |
| 20260508191525 | 63 | 236 | 0.0 | 2.6 | 0.00 | 0.00 | 0.00 | 38 | 1009.8 |
| 20260508190026 | 63 | 224 | 0.0 | 3.5 | 0.00 | 0.00 | 0.00 | 38 | 1009.9 |
| 20260508184518 | 63 | 207 | 0.0 | 5.2 | 0.00 | 0.00 | 0.00 | 38 | 1010.1 |
| 20260508183016 | 63 | 289 | 0.0 | 2.6 | 0.00 | 0.00 | 0.00 | 37 | 1010.1 |
| 20260508181512 | 61 | 226 | 0.0 | 4.3 | 0.00 | 0.00 | 0.00 | 40 | 1010.4 |
| 20260508180017 | 61 | 40 | 0.0 | 3.5 | 0.00 | 0.00 | 0.00 | 42 | 1010.7 |
| 20260508174511 | 61 | 290 | 0.0 | 2.6 | 0.00 | 0.00 | 0.00 | 40 | 1011.0 |
| 20260508173008 | 60 | 199 | 0.0 | 3.5 | 0.00 | 0.00 | 0.00 | 42 | 1011.3 |
| 20260508171501 | 59 | 223 | 0.0 | 5.2 | 0.00 | 0.00 | 0.00 | 46 | 1011.7 |
| 20260508170100 | 59 | 276 | 0.0 | 2.6 | 0.00 | 0.00 | 0.00 | 44 | 1011.8 |
| 20260508164557 | 58 | 265 | 0.0 | 3.5 | 0.00 | 0.00 | 0.00 | 42 | 1012.2 |
| 20260508163053 | 58 | 278 | 0.0 | 2.6 | 0.00 | 0.00 | 0.00 | 47 | 1012.3 |
| 20260508161551 | 57 | 281 | 0.0 | 0.9 | 0.00 | 0.00 | 0.00 | 48 | 1012.5 |
| 20260508154543 | 54 | 259 | 0.0 | 2.6 | 0.00 | 0.00 | 0.00 | 54 | 1012.6 |
| 20260508153046 | 54 | 285 | 0.0 | 2.6 | 0.00 | 0.00 | 0.00 | 57 | 1012.7 |
| 20260508151541 | 53 | 256 | 0.0 | 1.7 | 0.00 | 0.00 | 0.00 | 58 | 1012.8 |
| 20260508150037 | 52 | 271 | 0.0 | 0.9 | 0.00 | 0.00 | 0.00 | 65 | 1012.9 |
| 20260508144531 | 51 | 264 | 0.0 | 1.7 | 0.00 | 0.00 | 0.00 | 63 | 1013.0 |
| 20260508143036 | 50 | 333 | 0.0 | 0.9 | 0.00 | 0.00 | 0.00 | 73 | 1013.2 |
| 20260508141536 | 49 | 284 | 0.0 | 0.9 | 0.00 | 0.00 | 0.00 | 76 | 1013.3 |
| 20260508140023 | 48 | 297 | 0.0 | 0.0 | 0.00 | 0.00 | 0.00 | 78 | 1013.4 |
| 20260508134530 | 47 | 251 | 0.0 | 0.9 | 0.00 | 0.00 | 0.00 | 82 | 1013.5 |
| 20260508133023 | 46 | 240 | 0.0 | 0.9 | 0.00 | 0.00 | 0.00 | 88 | 1013.5 |
| 20260508131522 | 44 | 255 | 0.0 | 0.9 | 0.00 | 0.00 | 0.00 | 93 | 1013.5 |
| 20260508130022 | 43 | 322 | 0.0 | 0.9 | 0.00 | 0.00 | 0.00 | 95 | 1013.5 |
| 20260508124520 | 43 | 345 | 0.0 | 0.0 | 0.00 | 0.00 | 0.00 | 95 | 1013.4 |
| 20260508123020 | 42 | 345 | 0.0 | 0.0 | 0.00 | 0.00 | 0.00 | 96 | 1013.3 |
| 20260508121547 | 41 | 345 | 0.0 | 0.9 | 0.00 | 0.00 | 0.00 | 95 | 1013.2 |
| 20260508120019 | 40 | 143 | 0.0 | 0.0 | 0.00 | 0.00 | 0.00 | 96 | 1013.2 |
| 20260508114518 | 39 | 143 | 0.0 | 0.0 | 0.00 | 0.00 | 0.00 | 95 | 1013.0 |
| 20260508113018 | 39 | 143 | 0.0 | 0.0 | 0.00 | 0.00 | 0.00 | 95 | 1012.9 |
| 20260508111518 | 38 | 143 | 0.0 | 0.0 | 0.00 | 0.00 | 0.00 | 95 | 1012.7 |
| 20260508110016 | 38 | 143 | 0.0 | 0.0 | 0.00 | 0.00 | 0.00 | 95 | 1012.6 |
| 20260508104515 | 38 | 143 | 0.0 | 0.0 | 0.00 | 0.00 | 0.00 | 95 | 1012.7 |
| 20260508103016 | 39 | 143 | 0.0 | 0.0 | 0.00 | 0.00 | 0.00 | 95 | 1012.6 |
| 20260508101512 | 39 | 143 | 0.0 | 0.0 | 0.00 | 0.00 | 0.00 | 95 | 1012.5 |
| 20260508100010 | 40 | 143 | 0.0 | 0.0 | 0.00 | 0.00 | 0.00 | 95 | 1012.6 |
| 20260508094509 | 40 | 143 | 0.0 | 0.0 | 0.00 | 0.00 | 0.00 | 95 | 1012.6 |
| 20260508093010 | 40 | 143 | 0.0 | 0.0 | 0.00 | 0.00 | 0.00 | 95 | 1012.6 |
| 20260508091512 | 41 | 143 | 0.0 | 0.0 | 0.00 | 0.00 | 0.00 | 95 | 1012.6 |
| 20260508090008 | 41 | 143 | 0.0 | 0.0 | 0.00 | 0.00 | 0.00 | 94 | 1012.6 |
| 20260508084503 | 41 | 143 | 0.0 | 0.0 | 0.00 | 0.00 | 0.00 | 94 | 1012.6 |
| 20260508083006 | 42 | 174 | 0.0 | 0.0 | 0.00 | 0.00 | 0.00 | 94 | 1012.6 |
| 20260508081501 | 42 | 174 | 0.0 | 0.0 | 0.00 | 0.00 | 0.00 | 94 | 1012.6 |
| 20260508080002 | 42 | 174 | 0.0 | 0.0 | 0.00 | 0.00 | 0.00 | 94 | 1012.7 |
| 20260508074600 | 42 | 174 | 0.0 | 0.0 | 0.00 | 0.00 | 0.00 | 94 | 1012.7 |
| 20260508074501 | 42 | 174 | 0.0 | 0.0 | 0.00 | 0.00 | 0.00 | 94 | 1012.8 |
| 20260508073104 | 42 | 174 | 0.0 | 0.0 | 0.00 | 0.00 | 0.00 | 94 | 1012.8 |
| 20260508071600 | 42 | 174 | 0.0 | 0.0 | 0.00 | 0.00 | 0.00 | 94 | 1012.7 |
| 20260508064610 | 42 | 174 | 0.0 | 0.0 | 0.00 | 0.00 | 0.00 | 93 | 1012.6 |
| 20260508063058 | 42 | 175 | 0.0 | 0.0 | 0.00 | 0.00 | 0.00 | 93 | 1012.7 |
| 20260508061602 | 42 | 175 | 0.0 | 0.0 | 0.00 | 0.00 | 0.00 | 92 | 1012.7 |
| 20260508060106 | 42 | 175 | 0.0 | 0.0 | 0.00 | 0.00 | 0.00 | 92 | 1012.9 |
| 20260508054603 | 42 | 175 | 0.0 | 0.0 | 0.00 | 0.00 | 0.00 | 91 | 1013.0 |
| 20260508053051 | 43 | 175 | 0.0 | 0.0 | 0.00 | 0.00 | 0.00 | 90 | 1012.9 |
| 20260508051549 | 43 | 175 | 0.0 | 0.0 | 0.00 | 0.00 | 0.00 | 89 | 1012.9 |
| 20260508050050 | 44 | 173 | 0.0 | 0.0 | 0.00 | 0.00 | 0.00 | 89 | 1013.1 |
| 20260508044544 | 44 | 174 | 0.0 | 0.0 | 0.00 | 0.00 | 0.00 | 87 | 1013.0 |
| 20260508043041 | 46 | 178 | 0.0 | 0.0 | 0.00 | 0.00 | 0.00 | 83 | 1013.3 |
| 20260508041537 | 48 | 293 | 0.9 | 4.3 | 0.00 | 0.00 | 0.00 | 73 | 1013.4 |
| 20260508040036 | 48 | 28 | 0.0 | 0.0 | 0.00 | 0.00 | 0.00 | 71 | 1012.9 |
| 20260508034533 | 49 | 28 | 0.0 | 0.0 | 0.00 | 0.00 | 0.00 | 67 | 1012.7 |
| 20260508033032 | 49 | 28 | 0.0 | 0.0 | 0.00 | 0.00 | 0.00 | 62 | 1012.9 |
| 20260508031532 | 49 | 28 | 0.0 | 0.0 | 0.00 | 0.00 | 0.00 | 61 | 1013.0 |
| 20260508030031 | 49 | 28 | 0.0 | 0.0 | 0.00 | 0.00 | 0.00 | 62 | 1013.1 |
| 20260508024531 | 49 | 28 | 0.0 | 0.0 | 0.00 | 0.00 | 0.00 | 61 | 1013.3 |
| 20260508023132 | 49 | 29 | 0.0 | 0.0 | 0.00 | 0.00 | 0.00 | 60 | 1013.1 |
| 20260508021531 | 50 | 29 | 0.0 | 0.0 | 0.00 | 0.00 | 0.00 | 57 | 1013.0 |
| 20260508020028 | 50 | 303 | 0.0 | 0.0 | 0.00 | 0.00 | 0.00 | 58 | 1013.0 |
| 20260508014533 | 50 | 303 | 0.0 | 0.9 | 0.00 | 0.00 | 0.00 | 57 | 1012.9 |
| 20260508013028 | 50 | 300 | 0.0 | 0.0 | 0.00 | 0.00 | 0.00 | 56 | 1012.9 |
| 20260508011535 | 50 | 283 | 0.0 | 0.9 | 0.00 | 0.00 | 0.00 | 56 | 1012.7 |
| 20260508010031 | 51 | 269 | 0.0 | 5.2 | 0.00 | 0.00 | 0.00 | 53 | 1012.7 |
| 20260508004524 | 52 | 273 | 0.0 | 0.9 | 0.00 | 0.00 | 0.00 | 51 | 1012.6 |
| 20260508003034 | 52 | 273 | 0.0 | 1.7 | 0.00 | 0.00 | 0.00 | 47 | 1012.3 |
| 20260508001524 | 53 | 269 | 0.0 | 2.6 | 0.00 | 0.00 | 0.00 | 46 | 1012.2 |
| 20260508000023 | 53 | 286 | 0.0 | 2.6 | 0.00 | 0.00 | 0.00 | 45 | 1012.2 |
| 20260507234522 | 54 | 266 | 0.0 | 0.9 | 0.00 | 0.00 | 0.00 | 46 | 1012.2 |
| 20260507233023 | 54 | 283 | 0.0 | 2.6 | 0.00 | 0.00 | 0.00 | 46 | 1012.2 |
| 20260507231522 | 54 | 278 | 0.0 | 3.5 | 0.00 | 0.00 | 0.00 | 46 | 1012.2 |